Jacksonville, Alabama
Current Conditions -  °F | °C
As of 4:53 PM on Thursday 18 Dec 2014 (Local Time) from KANB Reporting Station
Broken Clouds Broken Clouds  
Wind Chill: 46°   Ceiling: 4800
Heat Index: 46°   Visibility: 10mi
Dew Point: 35°   Wind: 3mph
Humidity: 66%   Direction: 200°SSW
Pressure: 30.15"   Gusts: NA
Location:  33.81°N, 85.76°W
Report Text: KANB 182253Z AUTO 20003KT 10SM BKN048 08/02 A3015 RMK AO2 SLP220 T00780017
Loading
Personal Weather Stations






























Interactive Weather Map New forecast layout! Learn more

10-Day Weather Forecast

Advertisements
Track Severe Weather on mobile